sensor_id;sensor_type;location;lat;lon;timestamp;P1;durP1;ratioP1;P2;durP2;ratioP2
45236;SDS011;30973;51.442;3.580;2023-07-28T00:00:27;18.55;;;12.35;;
45236;SDS011;30973;51.442;3.580;2023-07-28T00:02:54;17.40;;;13.05;;
45236;SDS011;30973;51.442;3.580;2023-07-28T00:05:21;16.13;;;12.52;;
45236;SDS011;30973;51.442;3.580;2023-07-28T00:07:47;22.73;;;13.00;;
45236;SDS011;30973;51.442;3.580;2023-07-28T00:10:14;22.55;;;13.93;;
45236;SDS011;30973;51.442;3.580;2023-07-28T00:12:40;21.02;;;13.70;;
45236;SDS011;30973;51.442;3.580;2023-07-28T00:15:07;17.95;;;12.77;;
45236;SDS011;30973;51.442;3.580;2023-07-28T00:17:34;20.85;;;12.82;;
45236;SDS011;30973;51.442;3.580;2023-07-28T00:20:01;18.27;;;12.10;;
45236;SDS011;30973;51.442;3.580;2023-07-28T00:22:27;16.45;;;9.70;;
45236;SDS011;30973;51.442;3.580;2023-07-28T00:24:54;16.35;;;7.95;;
45236;SDS011;30973;51.442;3.580;2023-07-28T00:27:21;14.75;;;8.25;;
45236;SDS011;30973;51.442;3.580;2023-07-28T00:29:49;13.00;;;6.78;;
45236;SDS011;30973;51.442;3.580;2023-07-28T00:32:15;14.30;;;4.88;;
45236;SDS011;30973;51.442;3.580;2023-07-28T00:34:42;10.02;;;3.90;;
45236;SDS011;30973;51.442;3.580;2023-07-28T00:37:10;13.25;;;4.55;;
45236;SDS011;30973;51.442;3.580;2023-07-28T00:39:37;11.30;;;4.35;;
45236;SDS011;30973;51.442;3.580;2023-07-28T00:42:03;12.75;;;4.43;;
45236;SDS011;30973;51.442;3.580;2023-07-28T00:44:30;13.23;;;4.40;;
45236;SDS011;30973;51.442;3.580;2023-07-28T00:46:57;10.10;;;4.00;;
45236;SDS011;30973;51.442;3.580;2023-07-28T00:49:24;11.48;;;4.30;;
45236;SDS011;30973;51.442;3.580;2023-07-28T00:51:50;9.20;;;3.50;;
45236;SDS011;30973;51.442;3.580;2023-07-28T00:54:18;14.90;;;4.30;;
45236;SDS011;30973;51.442;3.580;2023-07-28T00:56:45;9.57;;;3.78;;
45236;SDS011;30973;51.442;3.580;2023-07-28T00:59:12;9.43;;;3.47;;
45236;SDS011;30973;51.442;3.580;2023-07-28T01:01:39;10.55;;;3.42;;
45236;SDS011;30973;51.442;3.580;2023-07-28T01:04:05;9.82;;;4.30;;
45236;SDS011;30973;51.442;3.580;2023-07-28T01:09:03;17.05;;;4.43;;
45236;SDS011;30973;51.442;3.580;2023-07-28T01:11:30;10.75;;;3.40;;
45236;SDS011;30973;51.442;3.580;2023-07-28T01:13:57;10.15;;;3.55;;
45236;SDS011;30973;51.442;3.580;2023-07-28T01:16:24;11.63;;;3.72;;
45236;SDS011;30973;51.442;3.580;2023-07-28T01:18:50;10.80;;;3.38;;
45236;SDS011;30973;51.442;3.580;2023-07-28T01:21:20;10.35;;;3.20;;
45236;SDS011;30973;51.442;3.580;2023-07-28T01:23:52;10.93;;;4.10;;
45236;SDS011;30973;51.442;3.580;2023-07-28T01:26:34;11.73;;;3.45;;
45236;SDS011;30973;51.442;3.580;2023-07-28T01:29:02;13.68;;;4.45;;
45236;SDS011;30973;51.442;3.580;2023-07-28T01:31:30;14.38;;;4.20;;
45236;SDS011;30973;51.442;3.580;2023-07-28T01:33:56;15.75;;;4.20;;
45236;SDS011;30973;51.442;3.580;2023-07-28T01:36:23;11.80;;;3.88;;
45236;SDS011;30973;51.442;3.580;2023-07-28T01:38:50;9.95;;;3.83;;
45236;SDS011;30973;51.442;3.580;2023-07-28T01:41:16;10.77;;;4.00;;
45236;SDS011;30973;51.442;3.580;2023-07-28T01:43:43;12.57;;;3.97;;
45236;SDS011;30973;51.442;3.580;2023-07-28T01:46:10;12.93;;;4.80;;
45236;SDS011;30973;51.442;3.580;2023-07-28T01:48:37;11.07;;;3.92;;
45236;SDS011;30973;51.442;3.580;2023-07-28T01:51:03;11.05;;;3.72;;
45236;SDS011;30973;51.442;3.580;2023-07-28T01:53:30;12.20;;;3.35;;
45236;SDS011;30973;51.442;3.580;2023-07-28T01:55:56;12.23;;;4.05;;
45236;SDS011;30973;51.442;3.580;2023-07-28T01:58:23;12.50;;;4.07;;
45236;SDS011;30973;51.442;3.580;2023-07-28T02:00:49;14.75;;;4.35;;
45236;SDS011;30973;51.442;3.580;2023-07-28T02:03:16;10.32;;;4.28;;
45236;SDS011;30973;51.442;3.580;2023-07-28T02:05:43;10.68;;;3.40;;
45236;SDS011;30973;51.442;3.580;2023-07-28T02:08:11;11.98;;;3.55;;
45236;SDS011;30973;51.442;3.580;2023-07-28T02:10:37;17.10;;;5.13;;
45236;SDS011;30973;51.442;3.580;2023-07-28T02:13:04;12.55;;;4.15;;
45236;SDS011;30973;51.442;3.580;2023-07-28T02:15:31;10.18;;;3.75;;
45236;SDS011;30973;51.442;3.580;2023-07-28T02:17:57;13.00;;;4.13;;
45236;SDS011;30973;51.442;3.580;2023-07-28T02:20:24;11.30;;;3.42;;
45236;SDS011;30973;51.442;3.580;2023-07-28T02:22:50;13.23;;;4.40;;
45236;SDS011;30973;51.442;3.580;2023-07-28T02:25:17;10.63;;;3.70;;
45236;SDS011;30973;51.442;3.580;2023-07-28T02:27:44;14.40;;;3.92;;
45236;SDS011;30973;51.442;3.580;2023-07-28T02:30:10;15.55;;;4.63;;
45236;SDS011;30973;51.442;3.580;2023-07-28T02:32:37;12.18;;;3.70;;
45236;SDS011;30973;51.442;3.580;2023-07-28T02:35:04;11.32;;;3.47;;
45236;SDS011;30973;51.442;3.580;2023-07-28T02:37:31;9.30;;;3.47;;
45236;SDS011;30973;51.442;3.580;2023-07-28T02:39:57;13.35;;;3.83;;
45236;SDS011;30973;51.442;3.580;2023-07-28T02:42:24;13.85;;;4.30;;
45236;SDS011;30973;51.442;3.580;2023-07-28T02:44:51;12.13;;;3.83;;
45236;SDS011;30973;51.442;3.580;2023-07-28T02:47:18;9.85;;;3.92;;
45236;SDS011;30973;51.442;3.580;2023-07-28T02:49:44;14.63;;;4.07;;
45236;SDS011;30973;51.442;3.580;2023-07-28T02:52:12;16.38;;;4.65;;
45236;SDS011;30973;51.442;3.580;2023-07-28T02:54:39;14.48;;;4.30;;
45236;SDS011;30973;51.442;3.580;2023-07-28T02:57:06;14.57;;;4.35;;
45236;SDS011;30973;51.442;3.580;2023-07-28T02:59:33;14.73;;;4.28;;
45236;SDS011;30973;51.442;3.580;2023-07-28T03:02:00;12.23;;;4.28;;
45236;SDS011;30973;51.442;3.580;2023-07-28T03:04:27;14.43;;;3.97;;
45236;SDS011;30973;51.442;3.580;2023-07-28T03:07:12;12.27;;;3.85;;
45236;SDS011;30973;51.442;3.580;2023-07-28T03:09:40;14.38;;;4.93;;
45236;SDS011;30973;51.442;3.580;2023-07-28T03:12:07;13.65;;;4.45;;
45236;SDS011;30973;51.442;3.580;2023-07-28T03:14:34;11.07;;;4.47;;
45236;SDS011;30973;51.442;3.580;2023-07-28T03:17:01;16.50;;;4.75;;
45236;SDS011;30973;51.442;3.580;2023-07-28T03:19:28;14.85;;;4.50;;
45236;SDS011;30973;51.442;3.580;2023-07-28T03:21:55;11.38;;;4.25;;
45236;SDS011;30973;51.442;3.580;2023-07-28T03:24:21;13.23;;;5.13;;
45236;SDS011;30973;51.442;3.580;2023-07-28T03:26:48;18.10;;;5.28;;
45236;SDS011;30973;51.442;3.580;2023-07-28T03:29:14;15.40;;;4.72;;
45236;SDS011;30973;51.442;3.580;2023-07-28T03:31:41;11.38;;;4.47;;
45236;SDS011;30973;51.442;3.580;2023-07-28T03:34:08;13.45;;;4.63;;
45236;SDS011;30973;51.442;3.580;2023-07-28T03:36:34;15.70;;;4.93;;
45236;SDS011;30973;51.442;3.580;2023-07-28T03:39:01;13.27;;;4.55;;
45236;SDS011;30973;51.442;3.580;2023-07-28T03:41:29;13.38;;;4.20;;
45236;SDS011;30973;51.442;3.580;2023-07-28T03:43:55;15.93;;;4.57;;
45236;SDS011;30973;51.442;3.580;2023-07-28T03:46:22;13.70;;;4.88;;
45236;SDS011;30973;51.442;3.580;2023-07-28T03:48:49;16.55;;;5.07;;
45236;SDS011;30973;51.442;3.580;2023-07-28T03:51:16;12.27;;;4.85;;
45236;SDS011;30973;51.442;3.580;2023-07-28T03:53:42;11.38;;;4.63;;
45236;SDS011;30973;51.442;3.580;2023-07-28T03:56:09;12.65;;;4.70;;
45236;SDS011;30973;51.442;3.580;2023-07-28T03:58:35;10.30;;;4.90;;
45236;SDS011;30973;51.442;3.580;2023-07-28T04:01:02;14.20;;;5.07;;
45236;SDS011;30973;51.442;3.580;2023-07-28T04:03:29;16.60;;;5.28;;
45236;SDS011;30973;51.442;3.580;2023-07-28T04:05:55;13.70;;;4.93;;
45236;SDS011;30973;51.442;3.580;2023-07-28T04:08:22;11.35;;;4.93;;
45236;SDS011;30973;51.442;3.580;2023-07-28T04:10:49;12.85;;;4.80;;
45236;SDS011;30973;51.442;3.580;2023-07-28T04:13:15;11.88;;;5.00;;
45236;SDS011;30973;51.442;3.580;2023-07-28T04:15:42;14.43;;;5.38;;
45236;SDS011;30973;51.442;3.580;2023-07-28T04:18:09;15.77;;;5.80;;
45236;SDS011;30973;51.442;3.580;2023-07-28T04:20:35;16.50;;;4.85;;
45236;SDS011;30973;51.442;3.580;2023-07-28T04:23:02;14.07;;;5.57;;
45236;SDS011;30973;51.442;3.580;2023-07-28T04:25:34;15.02;;;4.60;;
45236;SDS011;30973;51.442;3.580;2023-07-28T04:28:01;11.93;;;4.47;;
45236;SDS011;30973;51.442;3.580;2023-07-28T04:30:28;17.20;;;5.20;;
45236;SDS011;30973;51.442;3.580;2023-07-28T04:32:54;13.77;;;4.68;;
45236;SDS011;30973;51.442;3.580;2023-07-28T04:35:26;13.25;;;5.47;;
45236;SDS011;30973;51.442;3.580;2023-07-28T04:38:03;12.20;;;4.78;;
45236;SDS011;30973;51.442;3.580;2023-07-28T04:40:46;12.98;;;4.63;;
45236;SDS011;30973;51.442;3.580;2023-07-28T04:43:15;14.30;;;4.63;;
45236;SDS011;30973;51.442;3.580;2023-07-28T04:45:48;12.52;;;5.13;;
45236;SDS011;30973;51.442;3.580;2023-07-28T04:48:18;11.52;;;4.97;;
45236;SDS011;30973;51.442;3.580;2023-07-28T04:50:45;17.88;;;5.65;;
45236;SDS011;30973;51.442;3.580;2023-07-28T04:53:21;12.35;;;5.43;;
45236;SDS011;30973;51.442;3.580;2023-07-28T04:56:09;16.40;;;5.30;;
45236;SDS011;30973;51.442;3.580;2023-07-28T04:58:36;13.95;;;5.07;;
45236;SDS011;30973;51.442;3.580;2023-07-28T05:01:03;17.00;;;5.20;;
45236;SDS011;30973;51.442;3.580;2023-07-28T05:03:32;13.93;;;4.65;;
45236;SDS011;30973;51.442;3.580;2023-07-28T05:06:12;13.73;;;5.43;;
45236;SDS011;30973;51.442;3.580;2023-07-28T05:08:39;12.40;;;5.30;;
45236;SDS011;30973;51.442;3.580;2023-07-28T05:11:05;16.58;;;5.65;;
45236;SDS011;30973;51.442;3.580;2023-07-28T05:13:32;15.27;;;6.13;;
45236;SDS011;30973;51.442;3.580;2023-07-28T05:15:59;13.98;;;6.18;;
45236;SDS011;30973;51.442;3.580;2023-07-28T05:18:49;14.52;;;5.97;;
45236;SDS011;30973;51.442;3.580;2023-07-28T05:21:42;15.82;;;6.07;;
45236;SDS011;30973;51.442;3.580;2023-07-28T05:24:11;14.85;;;5.93;;
45236;SDS011;30973;51.442;3.580;2023-07-28T05:26:39;15.85;;;6.38;;
45236;SDS011;30973;51.442;3.580;2023-07-28T05:29:05;15.32;;;7.28;;
45236;SDS011;30973;51.442;3.580;2023-07-28T05:31:32;17.42;;;7.40;;
45236;SDS011;30973;51.442;3.580;2023-07-28T05:34:01;15.00;;;7.15;;
45236;SDS011;30973;51.442;3.580;2023-07-28T05:36:28;17.45;;;7.10;;
45236;SDS011;30973;51.442;3.580;2023-07-28T05:38:58;17.20;;;7.97;;
45236;SDS011;30973;51.442;3.580;2023-07-28T05:41:34;15.25;;;7.13;;
45236;SDS011;30973;51.442;3.580;2023-07-28T05:44:01;20.02;;;7.78;;
45236;SDS011;30973;51.442;3.580;2023-07-28T05:46:29;19.42;;;7.75;;
45236;SDS011;30973;51.442;3.580;2023-07-28T05:48:57;15.65;;;7.50;;
45236;SDS011;30973;51.442;3.580;2023-07-28T05:51:24;21.83;;;7.68;;
45236;SDS011;30973;51.442;3.580;2023-07-28T05:53:51;17.83;;;8.68;;
45236;SDS011;30973;51.442;3.580;2023-07-28T05:56:19;18.08;;;9.15;;
45236;SDS011;30973;51.442;3.580;2023-07-28T05:58:46;22.50;;;10.27;;
45236;SDS011;30973;51.442;3.580;2023-07-28T06:01:13;17.30;;;9.55;;
45236;SDS011;30973;51.442;3.580;2023-07-28T06:04:00;26.02;;;10.30;;
45236;SDS011;30973;51.442;3.580;2023-07-28T06:06:32;18.02;;;8.82;;
45236;SDS011;30973;51.442;3.580;2023-07-28T06:08:59;20.33;;;10.90;;
45236;SDS011;30973;51.442;3.580;2023-07-28T06:11:25;18.13;;;10.52;;
45236;SDS011;30973;51.442;3.580;2023-07-28T06:13:52;20.88;;;10.82;;
45236;SDS011;30973;51.442;3.580;2023-07-28T06:16:19;20.13;;;11.23;;
45236;SDS011;30973;51.442;3.580;2023-07-28T06:18:46;19.92;;;11.93;;
45236;SDS011;30973;51.442;3.580;2023-07-28T06:21:17;21.55;;;11.75;;
45236;SDS011;30973;51.442;3.580;2023-07-28T06:23:44;20.17;;;12.73;;
45236;SDS011;30973;51.442;3.580;2023-07-28T06:26:10;18.20;;;12.57;;
45236;SDS011;30973;51.442;3.580;2023-07-28T06:28:39;26.13;;;14.10;;
45236;SDS011;30973;51.442;3.580;2023-07-28T06:31:06;23.17;;;14.50;;
45236;SDS011;30973;51.442;3.580;2023-07-28T06:33:32;23.35;;;13.25;;
45236;SDS011;30973;51.442;3.580;2023-07-28T06:35:59;21.15;;;13.50;;
45236;SDS011;30973;51.442;3.580;2023-07-28T06:38:26;20.15;;;13.38;;
45236;SDS011;30973;51.442;3.580;2023-07-28T06:40:53;21.38;;;15.40;;
45236;SDS011;30973;51.442;3.580;2023-07-28T06:43:21;25.08;;;16.70;;
45236;SDS011;30973;51.442;3.580;2023-07-28T06:45:52;27.88;;;16.55;;
45236;SDS011;30973;51.442;3.580;2023-07-28T06:48:19;27.45;;;16.52;;
45236;SDS011;30973;51.442;3.580;2023-07-28T06:50:46;32.10;;;17.55;;
45236;SDS011;30973;51.442;3.580;2023-07-28T06:53:12;22.95;;;16.30;;
45236;SDS011;30973;51.442;3.580;2023-07-28T06:55:39;25.80;;;17.20;;
45236;SDS011;30973;51.442;3.580;2023-07-28T06:58:05;30.30;;;18.23;;
45236;SDS011;30973;51.442;3.580;2023-07-28T07:00:33;29.50;;;18.27;;
45236;SDS011;30973;51.442;3.580;2023-07-28T07:03:00;30.48;;;18.95;;
45236;SDS011;30973;51.442;3.580;2023-07-28T07:05:27;31.77;;;20.90;;
45236;SDS011;30973;51.442;3.580;2023-07-28T07:07:54;28.52;;;19.55;;
45236;SDS011;30973;51.442;3.580;2023-07-28T07:10:21;32.65;;;20.20;;
45236;SDS011;30973;51.442;3.580;2023-07-28T07:12:47;27.42;;;19.75;;
45236;SDS011;30973;51.442;3.580;2023-07-28T07:15:14;34.78;;;21.02;;
45236;SDS011;30973;51.442;3.580;2023-07-28T07:17:41;26.25;;;18.98;;
45236;SDS011;30973;51.442;3.580;2023-07-28T07:20:09;29.27;;;21.27;;
45236;SDS011;30973;51.442;3.580;2023-07-28T07:22:37;27.02;;;20.40;;
45236;SDS011;30973;51.442;3.580;2023-07-28T07:25:03;28.27;;;21.08;;
45236;SDS011;30973;51.442;3.580;2023-07-28T07:27:30;33.33;;;22.30;;
45236;SDS011;30973;51.442;3.580;2023-07-28T07:29:57;31.40;;;22.77;;
45236;SDS011;30973;51.442;3.580;2023-07-28T07:32:24;31.20;;;22.80;;
45236;SDS011;30973;51.442;3.580;2023-07-28T07:34:50;34.92;;;23.02;;
45236;SDS011;30973;51.442;3.580;2023-07-28T07:37:17;29.25;;;21.67;;
45236;SDS011;30973;51.442;3.580;2023-07-28T07:39:44;26.02;;;20.60;;
45236;SDS011;30973;51.442;3.580;2023-07-28T07:42:11;26.92;;;19.35;;
45236;SDS011;30973;51.442;3.580;2023-07-28T07:44:40;29.23;;;19.23;;
45236;SDS011;30973;51.442;3.580;2023-07-28T07:47:13;25.92;;;18.40;;
45236;SDS011;30973;51.442;3.580;2023-07-28T07:49:41;27.38;;;18.08;;
45236;SDS011;30973;51.442;3.580;2023-07-28T07:52:08;22.38;;;18.15;;
45236;SDS011;30973;51.442;3.580;2023-07-28T07:54:37;23.65;;;16.58;;
45236;SDS011;30973;51.442;3.580;2023-07-28T07:57:04;21.52;;;16.48;;
45236;SDS011;30973;51.442;3.580;2023-07-28T07:59:31;21.25;;;15.70;;
45236;SDS011;30973;51.442;3.580;2023-07-28T08:02:01;25.05;;;15.52;;
45236;SDS011;30973;51.442;3.580;2023-07-28T08:04:30;24.17;;;18.33;;
45236;SDS011;30973;51.442;3.580;2023-07-28T08:06:58;25.88;;;19.48;;
45236;SDS011;30973;51.442;3.580;2023-07-28T08:09:24;27.38;;;19.52;;
45236;SDS011;30973;51.442;3.580;2023-07-28T08:11:51;27.02;;;20.48;;
45236;SDS011;30973;51.442;3.580;2023-07-28T08:14:19;27.17;;;20.23;;
45236;SDS011;30973;51.442;3.580;2023-07-28T08:16:46;24.35;;;19.83;;
45236;SDS011;30973;51.442;3.580;2023-07-28T08:19:12;26.88;;;19.65;;
45236;SDS011;30973;51.442;3.580;2023-07-28T08:21:39;29.60;;;20.17;;
45236;SDS011;30973;51.442;3.580;2023-07-28T08:24:05;25.48;;;19.73;;
45236;SDS011;30973;51.442;3.580;2023-07-28T08:26:32;25.35;;;19.75;;
45236;SDS011;30973;51.442;3.580;2023-07-28T08:28:58;27.55;;;20.13;;
45236;SDS011;30973;51.442;3.580;2023-07-28T08:31:25;25.10;;;19.90;;
45236;SDS011;30973;51.442;3.580;2023-07-28T08:33:52;27.15;;;20.08;;
45236;SDS011;30973;51.442;3.580;2023-07-28T08:36:18;25.17;;;19.38;;
45236;SDS011;30973;51.442;3.580;2023-07-28T08:38:45;26.25;;;19.98;;
45236;SDS011;30973;51.442;3.580;2023-07-28T08:41:12;25.98;;;18.95;;
45236;SDS011;30973;51.442;3.580;2023-07-28T08:43:39;22.50;;;17.67;;
45236;SDS011;30973;51.442;3.580;2023-07-28T08:46:07;21.90;;;18.38;;
45236;SDS011;30973;51.442;3.580;2023-07-28T08:48:34;22.52;;;17.77;;
45236;SDS011;30973;51.442;3.580;2023-07-28T08:51:02;22.75;;;17.55;;
45236;SDS011;30973;51.442;3.580;2023-07-28T08:53:30;20.20;;;17.63;;
45236;SDS011;30973;51.442;3.580;2023-07-28T08:55:57;19.85;;;16.50;;
45236;SDS011;30973;51.442;3.580;2023-07-28T08:58:24;22.15;;;18.25;;
45236;SDS011;30973;51.442;3.580;2023-07-28T09:00:51;20.42;;;17.52;;
45236;SDS011;30973;51.442;3.580;2023-07-28T09:03:19;24.38;;;18.70;;
45236;SDS011;30973;51.442;3.580;2023-07-28T09:05:46;22.42;;;18.65;;
45236;SDS011;30973;51.442;3.580;2023-07-28T09:08:13;23.65;;;19.02;;
45236;SDS011;30973;51.442;3.580;2023-07-28T09:10:44;22.55;;;19.67;;
45236;SDS011;30973;51.442;3.580;2023-07-28T09:13:11;23.30;;;18.70;;
45236;SDS011;30973;51.442;3.580;2023-07-28T09:15:42;21.80;;;17.75;;
45236;SDS011;30973;51.442;3.580;2023-07-28T09:18:09;22.60;;;18.38;;
45236;SDS011;30973;51.442;3.580;2023-07-28T09:20:39;23.52;;;17.20;;
45236;SDS011;30973;51.442;3.580;2023-07-28T09:23:08;22.17;;;17.65;;
45236;SDS011;30973;51.442;3.580;2023-07-28T09:25:36;24.40;;;19.55;;
45236;SDS011;30973;51.442;3.580;2023-07-28T09:28:03;23.00;;;18.65;;
45236;SDS011;30973;51.442;3.580;2023-07-28T09:30:49;21.77;;;18.13;;
45236;SDS011;30973;51.442;3.580;2023-07-28T09:33:29;22.52;;;18.08;;
45236;SDS011;30973;51.442;3.580;2023-07-28T09:35:56;23.83;;;18.42;;
45236;SDS011;30973;51.442;3.580;2023-07-28T09:38:24;23.95;;;16.77;;
45236;SDS011;30973;51.442;3.580;2023-07-28T09:40:54;20.13;;;16.67;;
45236;SDS011;30973;51.442;3.580;2023-07-28T09:43:23;24.27;;;18.27;;
45236;SDS011;30973;51.442;3.580;2023-07-28T09:45:50;20.80;;;16.45;;
45236;SDS011;30973;51.442;3.580;2023-07-28T09:48:17;21.33;;;16.50;;
45236;SDS011;30973;51.442;3.580;2023-07-28T09:50:45;20.50;;;15.25;;
45236;SDS011;30973;51.442;3.580;2023-07-28T09:53:11;18.33;;;14.35;;
45236;SDS011;30973;51.442;3.580;2023-07-28T09:55:39;21.67;;;14.27;;
45236;SDS011;30973;51.442;3.580;2023-07-28T09:58:09;17.65;;;13.95;;
45236;SDS011;30973;51.442;3.580;2023-07-28T10:00:38;16.13;;;13.68;;
45236;SDS011;30973;51.442;3.580;2023-07-28T10:03:06;18.27;;;12.15;;
45236;SDS011;30973;51.442;3.580;2023-07-28T10:05:33;15.15;;;12.23;;
45236;SDS011;30973;51.442;3.580;2023-07-28T10:08:01;15.65;;;11.45;;
45236;SDS011;30973;51.442;3.580;2023-07-28T10:10:27;15.23;;;10.75;;
45236;SDS011;30973;51.442;3.580;2023-07-28T10:12:54;15.13;;;10.57;;
45236;SDS011;30973;51.442;3.580;2023-07-28T10:15:30;9.77;;;7.53;;
45236;SDS011;30973;51.442;3.580;2023-07-28T10:17:58;9.18;;;7.63;;
45236;SDS011;30973;51.442;3.580;2023-07-28T10:20:26;7.47;;;6.70;;
45236;SDS011;30973;51.442;3.580;2023-07-28T10:22:56;8.13;;;7.13;;
45236;SDS011;30973;51.442;3.580;2023-07-28T10:25:27;9.82;;;7.43;;
45236;SDS011;30973;51.442;3.580;2023-07-28T10:27:55;7.95;;;5.70;;
45236;SDS011;30973;51.442;3.580;2023-07-28T10:30:23;8.32;;;5.25;;
45236;SDS011;30973;51.442;3.580;2023-07-28T10:32:50;8.32;;;5.43;;
45236;SDS011;30973;51.442;3.580;2023-07-28T10:37:44;5.88;;;4.90;;
45236;SDS011;30973;51.442;3.580;2023-07-28T10:40:27;8.27;;;5.53;;
45236;SDS011;30973;51.442;3.580;2023-07-28T10:42:54;7.45;;;4.63;;
45236;SDS011;30973;51.442;3.580;2023-07-28T10:45:22;6.25;;;4.53;;
45236;SDS011;30973;51.442;3.580;2023-07-28T10:47:49;7.63;;;5.10;;
45236;SDS011;30973;51.442;3.580;2023-07-28T10:50:16;6.68;;;4.63;;
45236;SDS011;30973;51.442;3.580;2023-07-28T10:52:43;7.00;;;4.78;;
45236;SDS011;30973;51.442;3.580;2023-07-28T10:55:24;5.90;;;4.57;;
45236;SDS011;30973;51.442;3.580;2023-07-28T10:57:51;7.00;;;4.28;;
45236;SDS011;30973;51.442;3.580;2023-07-28T11:00:19;5.95;;;4.25;;
45236;SDS011;30973;51.442;3.580;2023-07-28T11:02:46;6.32;;;3.72;;
45236;SDS011;30973;51.442;3.580;2023-07-28T11:05:18;6.10;;;4.10;;
45236;SDS011;30973;51.442;3.580;2023-07-28T11:07:45;4.53;;;3.88;;
45236;SDS011;30973;51.442;3.580;2023-07-28T11:10:15;5.20;;;4.38;;
45236;SDS011;30973;51.442;3.580;2023-07-28T11:12:42;6.60;;;4.15;;
45236;SDS011;30973;51.442;3.580;2023-07-28T11:15:09;6.15;;;4.63;;
45236;SDS011;30973;51.442;3.580;2023-07-28T11:17:49;7.18;;;4.50;;
45236;SDS011;30973;51.442;3.580;2023-07-28T11:22:43;6.55;;;5.07;;
45236;SDS011;30973;51.442;3.580;2023-07-28T11:25:11;6.90;;;5.28;;
45236;SDS011;30973;51.442;3.580;2023-07-28T11:27:38;10.07;;;5.60;;
45236;SDS011;30973;51.442;3.580;2023-07-28T11:30:08;7.88;;;5.72;;
45236;SDS011;30973;51.442;3.580;2023-07-28T11:32:36;8.45;;;6.85;;
45236;SDS011;30973;51.442;3.580;2023-07-28T11:35:07;8.93;;;6.25;;
45236;SDS011;30973;51.442;3.580;2023-07-28T11:37:35;7.97;;;6.00;;
45236;SDS011;30973;51.442;3.580;2023-07-28T11:40:02;9.57;;;7.28;;
45236;SDS011;30973;51.442;3.580;2023-07-28T11:42:51;7.85;;;6.78;;
45236;SDS011;30973;51.442;3.580;2023-07-28T11:45:19;8.27;;;6.90;;
45236;SDS011;30973;51.442;3.580;2023-07-28T11:47:56;8.75;;;6.85;;
45236;SDS011;30973;51.442;3.580;2023-07-28T11:50:27;8.35;;;6.68;;
45236;SDS011;30973;51.442;3.580;2023-07-28T11:52:55;8.38;;;6.65;;
45236;SDS011;30973;51.442;3.580;2023-07-28T11:55:23;9.65;;;6.38;;
45236;SDS011;30973;51.442;3.580;2023-07-28T11:57:51;8.55;;;5.88;;
45236;SDS011;30973;51.442;3.580;2023-07-28T12:00:17;5.80;;;4.43;;
45236;SDS011;30973;51.442;3.580;2023-07-28T12:02:44;5.68;;;3.80;;
45236;SDS011;30973;51.442;3.580;2023-07-28T12:05:13;4.22;;;3.35;;
45236;SDS011;30973;51.442;3.580;2023-07-28T12:07:47;6.75;;;2.95;;
45236;SDS011;30973;51.442;3.580;2023-07-28T12:10:14;3.83;;;2.25;;
45236;SDS011;30973;51.442;3.580;2023-07-28T12:13:06;3.85;;;1.85;;
45236;SDS011;30973;51.442;3.580;2023-07-28T12:15:39;4.55;;;2.20;;
45236;SDS011;30973;51.442;3.580;2023-07-28T12:18:15;5.47;;;2.45;;
45236;SDS011;30973;51.442;3.580;2023-07-28T12:20:46;5.55;;;3.30;;
45236;SDS011;30973;51.442;3.580;2023-07-28T12:23:14;4.97;;;2.53;;
45236;SDS011;30973;51.442;3.580;2023-07-28T12:25:44;4.80;;;2.75;;
45236;SDS011;30973;51.442;3.580;2023-07-28T12:28:11;3.00;;;2.35;;
45236;SDS011;30973;51.442;3.580;2023-07-28T12:30:41;4.38;;;2.70;;
45236;SDS011;30973;51.442;3.580;2023-07-28T12:33:08;3.72;;;2.08;;
45236;SDS011;30973;51.442;3.580;2023-07-28T12:35:47;4.45;;;2.20;;
45236;SDS011;30973;51.442;3.580;2023-07-28T12:38:16;2.35;;;1.80;;
45236;SDS011;30973;51.442;3.580;2023-07-28T12:40:45;3.65;;;2.15;;
45236;SDS011;30973;51.442;3.580;2023-07-28T12:43:14;2.78;;;1.70;;
45236;SDS011;30973;51.442;3.580;2023-07-28T12:45:44;2.25;;;1.60;;
45236;SDS011;30973;51.442;3.580;2023-07-28T12:48:13;5.78;;;1.70;;
45236;SDS011;30973;51.442;3.580;2023-07-28T12:50:43;2.47;;;1.70;;
45236;SDS011;30973;51.442;3.580;2023-07-28T12:53:09;2.85;;;1.60;;
45236;SDS011;30973;51.442;3.580;2023-07-28T12:55:43;2.78;;;1.70;;
45236;SDS011;30973;51.442;3.580;2023-07-28T12:58:12;2.28;;;1.70;;
45236;SDS011;30973;51.442;3.580;2023-07-28T13:00:43;4.38;;;2.25;;
45236;SDS011;30973;51.442;3.580;2023-07-28T13:03:12;2.45;;;1.95;;
45236;SDS011;30973;51.442;3.580;2023-07-28T13:05:39;4.40;;;2.22;;
45236;SDS011;30973;51.442;3.580;2023-07-28T13:08:06;3.30;;;2.22;;
45236;SDS011;30973;51.442;3.580;2023-07-28T13:10:34;3.83;;;2.20;;
45236;SDS011;30973;51.442;3.580;2023-07-28T13:13:04;3.15;;;2.30;;
45236;SDS011;30973;51.442;3.580;2023-07-28T13:15:31;4.07;;;2.45;;
45236;SDS011;30973;51.442;3.580;2023-07-28T13:17:58;3.20;;;2.38;;
45236;SDS011;30973;51.442;3.580;2023-07-28T13:20:24;2.78;;;2.00;;
45236;SDS011;30973;51.442;3.580;2023-07-28T13:22:51;6.35;;;2.70;;
45236;SDS011;30973;51.442;3.580;2023-07-28T13:25:18;3.38;;;2.38;;
45236;SDS011;30973;51.442;3.580;2023-07-28T13:27:45;3.13;;;2.35;;
45236;SDS011;30973;51.442;3.580;2023-07-28T13:30:11;5.05;;;3.33;;
45236;SDS011;30973;51.442;3.580;2023-07-28T13:32:38;5.43;;;2.75;;
45236;SDS011;30973;51.442;3.580;2023-07-28T13:35:05;5.63;;;2.67;;
45236;SDS011;30973;51.442;3.580;2023-07-28T13:37:31;4.35;;;3.08;;
45236;SDS011;30973;51.442;3.580;2023-07-28T13:39:58;4.72;;;2.33;;
45236;SDS011;30973;51.442;3.580;2023-07-28T13:42:24;5.35;;;2.22;;
45236;SDS011;30973;51.442;3.580;2023-07-28T13:44:51;4.93;;;2.15;;
45236;SDS011;30973;51.442;3.580;2023-07-28T13:47:21;3.78;;;1.92;;
45236;SDS011;30973;51.442;3.580;2023-07-28T13:49:48;4.28;;;2.47;;
45236;SDS011;30973;51.442;3.580;2023-07-28T13:52:17;5.97;;;2.30;;
45236;SDS011;30973;51.442;3.580;2023-07-28T13:54:47;4.63;;;2.42;;
45236;SDS011;30973;51.442;3.580;2023-07-28T13:57:18;3.63;;;2.05;;
45236;SDS011;30973;51.442;3.580;2023-07-28T13:59:44;6.30;;;2.40;;
45236;SDS011;30973;51.442;3.580;2023-07-28T14:02:11;4.25;;;2.42;;
45236;SDS011;30973;51.442;3.580;2023-07-28T14:04:38;6.93;;;3.13;;
45236;SDS011;30973;51.442;3.580;2023-07-28T14:07:04;5.57;;;2.85;;
45236;SDS011;30973;51.442;3.580;2023-07-28T14:09:31;5.13;;;2.45;;
45236;SDS011;30973;51.442;3.580;2023-07-28T14:11:58;5.85;;;2.63;;
45236;SDS011;30973;51.442;3.580;2023-07-28T14:14:24;3.65;;;2.30;;
45236;SDS011;30973;51.442;3.580;2023-07-28T14:16:51;5.38;;;2.30;;
45236;SDS011;30973;51.442;3.580;2023-07-28T14:19:17;5.70;;;2.38;;
45236;SDS011;30973;51.442;3.580;2023-07-28T14:21:44;5.30;;;2.25;;
45236;SDS011;30973;51.442;3.580;2023-07-28T14:24:10;5.70;;;2.30;;
45236;SDS011;30973;51.442;3.580;2023-07-28T14:26:38;7.82;;;2.28;;
45236;SDS011;30973;51.442;3.580;2023-07-28T14:29:04;5.15;;;2.60;;
45236;SDS011;30973;51.442;3.580;2023-07-28T14:31:31;6.63;;;2.50;;
45236;SDS011;30973;51.442;3.580;2023-07-28T14:33:58;4.55;;;2.75;;
45236;SDS011;30973;51.442;3.580;2023-07-28T14:36:24;3.85;;;1.90;;
45236;SDS011;30973;51.442;3.580;2023-07-28T14:38:51;6.10;;;2.00;;
45236;SDS011;30973;51.442;3.580;2023-07-28T14:41:17;6.63;;;2.58;;
45236;SDS011;30973;51.442;3.580;2023-07-28T14:43:45;7.75;;;2.47;;
45236;SDS011;30973;51.442;3.580;2023-07-28T14:46:12;4.97;;;1.90;;
45236;SDS011;30973;51.442;3.580;2023-07-28T14:48:38;2.80;;;1.98;;